sensor_id;sensor_type;location;lat;lon;timestamp;pressure;altitude;pressure_sealevel;temperature;humidity
73297;BME280;61524;50.938;11.396;2023-05-21T00:00:43;99177.09;;;13.35;87.54
73297;BME280;61524;50.938;11.396;2023-05-21T00:03:08;99175.75;;;13.37;87.83
73297;BME280;61524;50.938;11.396;2023-05-21T00:05:41;99181.63;;;13.34;87.97
73297;BME280;61524;50.938;11.396;2023-05-21T00:08:07;99172.53;;;13.35;87.35
73297;BME280;61524;50.938;11.396;2023-05-21T00:10:32;99167.91;;;13.26;86.77
73297;BME280;61524;50.938;11.396;2023-05-21T00:12:58;99163.25;;;13.11;88.13
73297;BME280;61524;50.938;11.396;2023-05-21T00:15:23;99165.94;;;13.11;88.44
73297;BME280;61524;50.938;11.396;2023-05-21T00:17:49;99167.47;;;13.02;87.67
73297;BME280;61524;50.938;11.396;2023-05-21T00:20:14;99162.06;;;12.97;87.56
73297;BME280;61524;50.938;11.396;2023-05-21T00:22:40;99159.41;;;12.97;88.37
73297;BME280;61524;50.938;11.396;2023-05-21T00:25:10;99161.59;;;13.05;88.03
73297;BME280;61524;50.938;11.396;2023-05-21T00:27:36;99156.25;;;13.05;87.69
73297;BME280;61524;50.938;11.396;2023-05-21T00:30:02;99143.59;;;13.00;87.60
73297;BME280;61524;50.938;11.396;2023-05-21T00:32:28;99155.41;;;12.99;87.53
73297;BME280;61524;50.938;11.396;2023-05-21T00:34:53;99147.59;;;12.93;86.95
73297;BME280;61524;50.938;11.396;2023-05-21T00:37:19;99142.44;;;12.81;87.27
73297;BME280;61524;50.938;11.396;2023-05-21T00:39:45;99134.50;;;12.64;88.12
73297;BME280;61524;50.938;11.396;2023-05-21T00:42:11;99135.63;;;12.68;88.11
73297;BME280;61524;50.938;11.396;2023-05-21T00:44:37;99149.59;;;12.70;88.11
73297;BME280;61524;50.938;11.396;2023-05-21T00:47:03;99139.94;;;12.74;88.47
73297;BME280;61524;50.938;11.396;2023-05-21T00:49:30;99148.25;;;12.73;88.35
73297;BME280;61524;50.938;11.396;2023-05-21T00:51:56;99143.38;;;12.65;88.46
73297;BME280;61524;50.938;11.396;2023-05-21T00:54:22;99151.63;;;12.58;87.72
73297;BME280;61524;50.938;11.396;2023-05-21T00:56:48;99144.56;;;12.47;88.78
73297;BME280;61524;50.938;11.396;2023-05-21T00:59:15;99131.13;;;12.42;88.93
73297;BME280;61524;50.938;11.396;2023-05-21T01:01:42;99139.13;;;12.37;88.88
73297;BME280;61524;50.938;11.396;2023-05-21T01:04:10;99138.06;;;12.32;89.41
73297;BME280;61524;50.938;11.396;2023-05-21T01:06:35;99144.16;;;12.28;88.93
73297;BME280;61524;50.938;11.396;2023-05-21T01:09:02;99151.59;;;12.21;89.52
73297;BME280;61524;50.938;11.396;2023-05-21T01:11:49;99130.78;;;12.28;89.18
73297;BME280;61524;50.938;11.396;2023-05-21T01:14:16;99133.16;;;12.24;89.24
73297;BME280;61524;50.938;11.396;2023-05-21T01:16:44;99133.31;;;12.13;89.02
73297;BME280;61524;50.938;11.396;2023-05-21T01:19:15;99125.53;;;12.11;88.61
73297;BME280;61524;50.938;11.396;2023-05-21T01:21:45;99131.94;;;12.10;88.67
73297;BME280;61524;50.938;11.396;2023-05-21T01:24:14;99133.31;;;12.13;88.90
73297;BME280;61524;50.938;11.396;2023-05-21T01:26:39;99137.56;;;12.08;88.86
73297;BME280;61524;50.938;11.396;2023-05-21T01:29:07;99131.44;;;12.13;88.84
73297;BME280;61524;50.938;11.396;2023-05-21T01:34:24;99134.78;;;11.98;89.16
73297;BME280;61524;50.938;11.396;2023-05-21T01:37:30;99123.53;;;11.96;88.90
73297;BME280;61524;50.938;11.396;2023-05-21T01:40:13;99131.03;;;11.99;89.33
73297;BME280;61524;50.938;11.396;2023-05-21T01:42:42;99130.97;;;11.94;89.55
73297;BME280;61524;50.938;11.396;2023-05-21T01:45:09;99120.38;;;12.04;89.09
73297;BME280;61524;50.938;11.396;2023-05-21T01:47:36;99123.16;;;11.88;89.42
73297;BME280;61524;50.938;11.396;2023-05-21T01:50:03;99122.88;;;11.84;89.18
73297;BME280;61524;50.938;11.396;2023-05-21T01:52:29;99118.06;;;11.86;89.11
73297;BME280;61524;50.938;11.396;2023-05-21T01:54:56;99122.53;;;11.80;89.67
73297;BME280;61524;50.938;11.396;2023-05-21T01:57:21;99121.81;;;11.85;89.12
73297;BME280;61524;50.938;11.396;2023-05-21T01:59:47;99124.41;;;11.80;88.94
73297;BME280;61524;50.938;11.396;2023-05-21T02:02:13;99133.59;;;11.89;88.52
73297;BME280;61524;50.938;11.396;2023-05-21T02:04:38;99131.72;;;11.85;88.50
73297;BME280;61524;50.938;11.396;2023-05-21T02:07:05;99123.59;;;11.79;88.96
73297;BME280;61524;50.938;11.396;2023-05-21T02:09:31;99136.25;;;11.84;88.34
73297;BME280;61524;50.938;11.396;2023-05-21T02:11:57;99130.25;;;11.77;88.79
73297;BME280;61524;50.938;11.396;2023-05-21T02:14:22;99134.00;;;11.76;88.94
73297;BME280;61524;50.938;11.396;2023-05-21T02:16:49;99125.16;;;11.75;88.66
73297;BME280;61524;50.938;11.396;2023-05-21T02:19:16;99113.75;;;11.58;89.28
73297;BME280;61524;50.938;11.396;2023-05-21T02:21:42;99123.81;;;11.51;89.50
73297;BME280;61524;50.938;11.396;2023-05-21T02:24:07;99124.63;;;11.51;88.96
73297;BME280;61524;50.938;11.396;2023-05-21T02:26:33;99112.31;;;11.50;89.00
73297;BME280;61524;50.938;11.396;2023-05-21T02:28:59;99111.00;;;11.53;88.54
73297;BME280;61524;50.938;11.396;2023-05-21T02:31:24;99122.78;;;11.52;89.59
73297;BME280;61524;50.938;11.396;2023-05-21T02:33:50;99122.94;;;11.45;89.03
73297;BME280;61524;50.938;11.396;2023-05-21T02:36:15;99122.78;;;11.52;88.85
73297;BME280;61524;50.938;11.396;2023-05-21T02:38:43;99104.97;;;11.41;88.81
73297;BME280;61524;50.938;11.396;2023-05-21T02:41:12;99123.69;;;11.41;88.70
73297;BME280;61524;50.938;11.396;2023-05-21T02:43:38;99123.81;;;11.29;90.07
73297;BME280;61524;50.938;11.396;2023-05-21T02:46:05;99121.94;;;11.29;90.16
73297;BME280;61524;50.938;11.396;2023-05-21T02:48:30;99122.53;;;11.32;89.88
73297;BME280;61524;50.938;11.396;2023-05-21T02:50:57;99105.75;;;11.36;89.37
73297;BME280;61524;50.938;11.396;2023-05-21T02:53:22;99111.31;;;11.35;89.56
73297;BME280;61524;50.938;11.396;2023-05-21T02:55:48;99104.34;;;11.34;90.03
73297;BME280;61524;50.938;11.396;2023-05-21T02:58:13;99114.63;;;11.42;89.46
73297;BME280;61524;50.938;11.396;2023-05-21T03:00:39;99113.25;;;11.39;89.50
73297;BME280;61524;50.938;11.396;2023-05-21T03:03:04;99110.09;;;11.42;89.50
73297;BME280;61524;50.938;11.396;2023-05-21T03:05:30;99107.41;;;11.42;89.31
73297;BME280;61524;50.938;11.396;2023-05-21T03:07:55;99108.16;;;11.38;89.54
73297;BME280;61524;50.938;11.396;2023-05-21T03:10:21;99116.97;;;11.38;89.85
73297;BME280;61524;50.938;11.396;2023-05-21T03:12:46;99117.25;;;11.37;89.99
73297;BME280;61524;50.938;11.396;2023-05-21T03:15:12;99117.84;;;11.44;89.46
73297;BME280;61524;50.938;11.396;2023-05-21T03:17:39;99119.53;;;11.28;89.83
73297;BME280;61524;50.938;11.396;2023-05-21T03:20:07;99119.19;;;11.19;90.02
73297;BME280;61524;50.938;11.396;2023-05-21T03:22:33;99107.47;;;11.25;90.05
73297;BME280;61524;50.938;11.396;2023-05-21T03:24:59;99117.66;;;11.28;90.18
73297;BME280;61524;50.938;11.396;2023-05-21T03:27:26;99107.16;;;11.22;89.70
73297;BME280;61524;50.938;11.396;2023-05-21T03:29:51;99118.19;;;11.25;90.00
73297;BME280;61524;50.938;11.396;2023-05-21T03:32:20;99111.16;;;11.41;89.38
73297;BME280;61524;50.938;11.396;2023-05-21T03:34:45;99105.75;;;11.36;89.43
73297;BME280;61524;50.938;11.396;2023-05-21T03:37:10;99103.59;;;11.38;88.99
73297;BME280;61524;50.938;11.396;2023-05-21T03:39:36;99111.94;;;11.42;88.86
73297;BME280;61524;50.938;11.396;2023-05-21T03:42:01;99116.38;;;11.31;89.24
73297;BME280;61524;50.938;11.396;2023-05-21T03:44:27;99117.97;;;11.32;89.46
73297;BME280;61524;50.938;11.396;2023-05-21T03:46:53;99125.31;;;11.42;88.96
73297;BME280;61524;50.938;11.396;2023-05-21T03:49:19;99125.44;;;11.52;89.01
73297;BME280;61524;50.938;11.396;2023-05-21T03:51:44;99129.94;;;11.46;89.71
73297;BME280;61524;50.938;11.396;2023-05-21T03:54:10;99119.47;;;11.45;89.57
73297;BME280;61524;50.938;11.396;2023-05-21T03:56:35;99133.09;;;11.43;88.98
73297;BME280;61524;50.938;11.396;2023-05-21T03:59:01;99131.91;;;11.56;89.40
73297;BME280;61524;50.938;11.396;2023-05-21T04:01:26;99129.47;;;11.54;89.58
73297;BME280;61524;50.938;11.396;2023-05-21T04:03:52;99132.53;;;11.41;90.14
73297;BME280;61524;50.938;11.396;2023-05-21T04:06:17;99132.34;;;11.48;90.01
73297;BME280;61524;50.938;11.396;2023-05-21T04:08:43;99137.13;;;11.46;89.74
73297;BME280;61524;50.938;11.396;2023-05-21T04:11:08;99122.94;;;11.45;90.53
73297;BME280;61524;50.938;11.396;2023-05-21T04:13:34;99136.63;;;11.49;90.25
73297;BME280;61524;50.938;11.396;2023-05-21T04:16:00;99144.31;;;11.67;89.92
73297;BME280;61524;50.938;11.396;2023-05-21T04:18:25;99131.41;;;11.59;90.44
73297;BME280;61524;50.938;11.396;2023-05-21T04:20:51;99137.13;;;11.68;89.96
73297;BME280;61524;50.938;11.396;2023-05-21T04:23:17;99149.06;;;11.60;90.99
73297;BME280;61524;50.938;11.396;2023-05-21T04:25:42;99131.88;;;11.78;89.71
73297;BME280;61524;50.938;11.396;2023-05-21T04:28:07;99148.25;;;11.81;89.44
73297;BME280;61524;50.938;11.396;2023-05-21T04:30:33;99130.81;;;11.79;89.11
73297;BME280;61524;50.938;11.396;2023-05-21T04:33:02;99147.31;;;11.93;89.70
73297;BME280;61524;50.938;11.396;2023-05-21T04:35:27;99137.19;;;11.95;89.48
73297;BME280;61524;50.938;11.396;2023-05-21T04:37:53;99150.75;;;11.66;90.15
73297;BME280;61524;50.938;11.396;2023-05-21T04:40:19;99143.75;;;12.14;89.45
73297;BME280;61524;50.938;11.396;2023-05-21T04:42:49;99146.13;;;12.05;90.06
73297;BME280;61524;50.938;11.396;2023-05-21T04:45:17;99135.94;;;12.07;89.33
73297;BME280;61524;50.938;11.396;2023-05-21T04:47:42;99141.94;;;12.20;89.23
73297;BME280;61524;50.938;11.396;2023-05-21T04:50:08;99146.91;;;12.33;88.50
73297;BME280;61524;50.938;11.396;2023-05-21T04:52:38;99136.63;;;12.25;89.23
73297;BME280;61524;50.938;11.396;2023-05-21T04:55:05;99146.59;;;12.29;88.92
73297;BME280;61524;50.938;11.396;2023-05-21T04:57:31;99134.63;;;12.42;88.61
73297;BME280;61524;50.938;11.396;2023-05-21T04:59:56;99132.38;;;12.61;87.91
73297;BME280;61524;50.938;11.396;2023-05-21T05:02:22;99133.47;;;12.65;87.27
73297;BME280;61524;50.938;11.396;2023-05-21T05:04:47;99129.47;;;12.68;87.62
73297;BME280;61524;50.938;11.396;2023-05-21T05:07:13;99134.91;;;12.83;87.25
73297;BME280;61524;50.938;11.396;2023-05-21T05:09:39;99127.44;;;12.90;87.20
73297;BME280;61524;50.938;11.396;2023-05-21T05:12:04;99132.66;;;13.12;86.36
73297;BME280;61524;50.938;11.396;2023-05-21T05:14:30;99135.53;;;13.48;85.80
73297;BME280;61524;50.938;11.396;2023-05-21T05:16:55;99141.50;;;13.70;85.27
73297;BME280;61524;50.938;11.396;2023-05-21T05:19:25;99134.31;;;13.91;84.55
73297;BME280;61524;50.938;11.396;2023-05-21T05:21:51;99136.22;;;14.41;82.57
73297;BME280;61524;50.938;11.396;2023-05-21T05:24:16;99127.00;;;15.19;81.53
73297;BME280;61524;50.938;11.396;2023-05-21T05:26:42;99135.16;;;15.68;79.16
73297;BME280;61524;50.938;11.396;2023-05-21T05:29:07;99143.31;;;15.97;78.23
73297;BME280;61524;50.938;11.396;2023-05-21T05:31:32;99137.81;;;16.18;77.41
73297;BME280;61524;50.938;11.396;2023-05-21T05:33:58;99139.34;;;16.29;77.00
73297;BME280;61524;50.938;11.396;2023-05-21T05:36:23;99134.16;;;16.04;78.12
73297;BME280;61524;50.938;11.396;2023-05-21T05:38:49;99139.69;;;15.78;78.02
73297;BME280;61524;50.938;11.396;2023-05-21T05:41:14;99128.28;;;15.91;78.56
73297;BME280;61524;50.938;11.396;2023-05-21T05:43:40;99128.09;;;16.51;77.42
73297;BME280;61524;50.938;11.396;2023-05-21T05:46:05;99120.19;;;17.61;74.25
73297;BME280;61524;50.938;11.396;2023-05-21T05:48:31;99119.63;;;18.20;71.33
73297;BME280;61524;50.938;11.396;2023-05-21T05:50:56;99139.16;;;18.69;69.37
73297;BME280;61524;50.938;11.396;2023-05-21T05:53:22;99123.16;;;19.13;70.09
73297;BME280;61524;50.938;11.396;2023-05-21T05:55:47;99125.16;;;19.49;68.94
73297;BME280;61524;50.938;11.396;2023-05-21T05:58:13;99128.78;;;19.95;67.71
73297;BME280;61524;50.938;11.396;2023-05-21T06:00:38;99128.75;;;19.45;68.07
73297;BME280;61524;50.938;11.396;2023-05-21T06:03:04;99128.88;;;20.03;67.89
73297;BME280;61524;50.938;11.396;2023-05-21T06:05:29;99118.59;;;20.59;64.35
73297;BME280;61524;50.938;11.396;2023-05-21T06:07:55;99125.69;;;20.24;66.76
73297;BME280;61524;50.938;11.396;2023-05-21T06:10:20;99114.94;;;20.41;66.97
73297;BME280;61524;50.938;11.396;2023-05-21T06:12:46;99124.84;;;20.23;67.52
73297;BME280;61524;50.938;11.396;2023-05-21T06:15:12;99135.66;;;20.59;66.98
73297;BME280;61524;50.938;11.396;2023-05-21T06:17:39;99121.28;;;21.21;65.88
73297;BME280;61524;50.938;11.396;2023-05-21T06:20:06;99125.28;;;21.23;66.10
73297;BME280;61524;50.938;11.396;2023-05-21T06:22:33;99119.84;;;21.81;64.26
73297;BME280;61524;50.938;11.396;2023-05-21T06:24:58;99126.06;;;22.42;61.00
73297;BME280;61524;50.938;11.396;2023-05-21T06:27:24;99130.19;;;21.61;63.66
73297;BME280;61524;50.938;11.396;2023-05-21T06:29:49;99118.41;;;21.26;64.27
73297;BME280;61524;50.938;11.396;2023-05-21T06:32:15;99114.63;;;20.96;65.52
73297;BME280;61524;50.938;11.396;2023-05-21T06:34:40;99128.47;;;19.19;70.06
73297;BME280;61524;50.938;11.396;2023-05-21T06:37:06;99120.31;;;19.74;69.49
73297;BME280;61524;50.938;11.396;2023-05-21T06:39:32;99121.78;;;19.80;69.19
73297;BME280;61524;50.938;11.396;2023-05-21T06:41:57;99132.66;;;19.52;70.72
73297;BME280;61524;50.938;11.396;2023-05-21T06:44:22;99123.41;;;18.71;73.17
73297;BME280;61524;50.938;11.396;2023-05-21T06:46:48;99137.00;;;18.66;73.38
73297;BME280;61524;50.938;11.396;2023-05-21T06:49:13;99122.97;;;18.63;74.70
73297;BME280;61524;50.938;11.396;2023-05-21T06:51:39;99130.31;;;18.44;74.50
73297;BME280;61524;50.938;11.396;2023-05-21T06:54:04;99120.25;;;18.31;75.83
73297;BME280;61524;50.938;11.396;2023-05-21T06:56:30;99124.25;;;18.52;76.68
73297;BME280;61524;50.938;11.396;2023-05-21T06:58:55;99107.56;;;18.13;77.34
73297;BME280;61524;50.938;11.396;2023-05-21T07:01:21;99118.31;;;18.50;76.88
73297;BME280;61524;50.938;11.396;2023-05-21T07:03:47;99106.88;;;19.41;73.80
73297;BME280;61524;50.938;11.396;2023-05-21T07:06:13;99117.72;;;19.55;71.74
73297;BME280;61524;50.938;11.396;2023-05-21T07:08:38;99128.63;;;20.13;71.28
73297;BME280;61524;50.938;11.396;2023-05-21T07:11:04;99127.91;;;20.66;69.63
73297;BME280;61524;50.938;11.396;2023-05-21T07:13:29;99109.72;;;21.55;66.84
73297;BME280;61524;50.938;11.396;2023-05-21T07:15:55;99119.91;;;21.41;67.12
73297;BME280;61524;50.938;11.396;2023-05-21T07:18:20;99117.59;;;21.74;66.63
73297;BME280;61524;50.938;11.396;2023-05-21T07:20:46;99126.19;;;21.10;68.39
73297;BME280;61524;50.938;11.396;2023-05-21T07:23:11;99124.22;;;20.71;69.96
73297;BME280;61524;50.938;11.396;2023-05-21T07:25:36;99123.03;;;20.55;70.28
73297;BME280;61524;50.938;11.396;2023-05-21T07:28:02;99127.72;;;20.94;70.26
73297;BME280;61524;50.938;11.396;2023-05-21T07:30:27;99108.28;;;21.84;68.19
73297;BME280;61524;50.938;11.396;2023-05-21T07:32:53;99116.22;;;22.93;64.15
73297;BME280;61524;50.938;11.396;2023-05-21T07:35:18;99116.59;;;23.71;63.69
73297;BME280;61524;50.938;11.396;2023-05-21T07:37:44;99105.78;;;23.24;63.99
73297;BME280;61524;50.938;11.396;2023-05-21T07:40:11;99112.56;;;23.48;63.61
73297;BME280;61524;50.938;11.396;2023-05-21T07:42:36;99105.59;;;23.00;64.19
73297;BME280;61524;50.938;11.396;2023-05-21T07:45:02;99100.97;;;22.01;66.59
73297;BME280;61524;50.938;11.396;2023-05-21T07:47:27;99107.56;;;22.91;64.64
73297;BME280;61524;50.938;11.396;2023-05-21T07:49:53;99106.72;;;22.35;66.43
73297;BME280;61524;50.938;11.396;2023-05-21T07:52:18;99100.13;;;22.44;65.51
73297;BME280;61524;50.938;11.396;2023-05-21T07:54:44;99095.66;;;22.31;66.55
73297;BME280;61524;50.938;11.396;2023-05-21T07:57:09;99102.19;;;23.03;64.67
73297;BME280;61524;50.938;11.396;2023-05-21T07:59:35;99099.75;;;22.72;65.37
73297;BME280;61524;50.938;11.396;2023-05-21T08:02:00;99093.00;;;23.46;63.19
73297;BME280;61524;50.938;11.396;2023-05-21T08:04:26;99089.00;;;23.43;64.18
73297;BME280;61524;50.938;11.396;2023-05-21T08:06:51;99089.44;;;23.24;64.50
73297;BME280;61524;50.938;11.396;2023-05-21T08:09:17;99082.72;;;22.11;67.64
73297;BME280;61524;50.938;11.396;2023-05-21T08:11:44;99082.69;;;21.93;68.21
73297;BME280;61524;50.938;11.396;2023-05-21T08:14:09;99083.50;;;21.77;69.73
73297;BME280;61524;50.938;11.396;2023-05-21T08:16:35;99084.91;;;21.39;70.42
73297;BME280;61524;50.938;11.396;2023-05-21T08:19:01;99081.56;;;21.94;69.54
73297;BME280;61524;50.938;11.396;2023-05-21T08:21:27;99076.94;;;22.30;67.91
73297;BME280;61524;50.938;11.396;2023-05-21T08:23:52;99086.97;;;22.55;67.92
73297;BME280;61524;50.938;11.396;2023-05-21T08:26:18;99084.53;;;22.62;67.89
73297;BME280;61524;50.938;11.396;2023-05-21T08:28:44;99076.94;;;22.04;69.84
73297;BME280;61524;50.938;11.396;2023-05-21T08:31:09;99074.44;;;22.71;68.38
73297;BME280;61524;50.938;11.396;2023-05-21T08:33:35;99069.91;;;23.43;65.08
73297;BME280;61524;50.938;11.396;2023-05-21T08:36:03;99065.84;;;22.99;66.03
73297;BME280;61524;50.938;11.396;2023-05-21T08:38:29;99063.41;;;23.36;65.66
73297;BME280;61524;50.938;11.396;2023-05-21T08:40:55;99074.09;;;23.91;63.07
73297;BME280;61524;50.938;11.396;2023-05-21T08:43:22;99063.00;;;23.46;64.44
73297;BME280;61524;50.938;11.396;2023-05-21T08:45:52;99073.00;;;23.83;63.72
73297;BME280;61524;50.938;11.396;2023-05-21T08:48:21;99065.50;;;24.01;62.66
73297;BME280;61524;50.938;11.396;2023-05-21T08:50:49;99068.16;;;23.18;64.09
73297;BME280;61524;50.938;11.396;2023-05-21T08:53:14;99072.91;;;23.50;66.04
73297;BME280;61524;50.938;11.396;2023-05-21T08:55:40;99077.88;;;23.99;64.07
73297;BME280;61524;50.938;11.396;2023-05-21T08:58:07;99071.00;;;22.83;65.89
73297;BME280;61524;50.938;11.396;2023-05-21T09:00:32;99065.66;;;23.04;65.70
73297;BME280;61524;50.938;11.396;2023-05-21T09:02:58;99071.31;;;23.79;64.19
73297;BME280;61524;50.938;11.396;2023-05-21T09:05:26;99073.72;;;23.51;63.80
73297;BME280;61524;50.938;11.396;2023-05-21T09:07:58;99072.69;;;23.64;63.87
73297;BME280;61524;50.938;11.396;2023-05-21T09:10:35;99069.13;;;23.43;64.52
73297;BME280;61524;50.938;11.396;2023-05-21T09:13:02;99067.41;;;23.09;65.24
73297;BME280;61524;50.938;11.396;2023-05-21T09:15:27;99057.47;;;23.34;65.44
73297;BME280;61524;50.938;11.396;2023-05-21T09:17:53;99056.47;;;23.38;65.38
73297;BME280;61524;50.938;11.396;2023-05-21T09:20:23;99065.88;;;23.49;64.80
73297;BME280;61524;50.938;11.396;2023-05-21T09:22:49;99074.03;;;23.79;65.75
73297;BME280;61524;50.938;11.396;2023-05-21T09:25:19;99062.28;;;23.99;65.01
73297;BME280;61524;50.938;11.396;2023-05-21T09:27:45;99070.47;;;23.78;65.37
73297;BME280;61524;50.938;11.396;2023-05-21T09:30:12;99067.88;;;24.03;63.74
73297;BME280;61524;50.938;11.396;2023-05-21T09:32:39;99066.16;;;23.77;64.62
73297;BME280;61524;50.938;11.396;2023-05-21T09:35:10;99073.53;;;23.98;64.74
73297;BME280;61524;50.938;11.396;2023-05-21T09:37:44;99072.78;;;24.09;64.63
73297;BME280;61524;50.938;11.396;2023-05-21T09:40:16;99079.00;;;23.98;63.96
73297;BME280;61524;50.938;11.396;2023-05-21T09:42:45;99064.50;;;23.35;64.69
73297;BME280;61524;50.938;11.396;2023-05-21T09:45:11;99062.25;;;23.66;65.07
73297;BME280;61524;50.938;11.396;2023-05-21T09:47:44;99070.22;;;23.92;63.87
73297;BME280;61524;50.938;11.396;2023-05-21T09:50:12;99069.94;;;24.06;64.00
73297;BME280;61524;50.938;11.396;2023-05-21T09:52:38;99058.16;;;24.26;64.04
73297;BME280;61524;50.938;11.396;2023-05-21T09:55:05;99055.66;;;24.21;64.01
73297;BME280;61524;50.938;11.396;2023-05-21T09:57:31;99053.25;;;24.20;62.72
73297;BME280;61524;50.938;11.396;2023-05-21T09:59:57;99043.72;;;24.96;61.60
73297;BME280;61524;50.938;11.396;2023-05-21T10:02:23;99056.72;;;24.99;62.24
73297;BME280;61524;50.938;11.396;2023-05-21T10:04:51;99054.19;;;24.69;62.68
73297;BME280;61524;50.938;11.396;2023-05-21T10:07:20;99052.50;;;24.89;63.77
73297;BME280;61524;50.938;11.396;2023-05-21T10:09:53;99047.47;;;24.21;65.22
73297;BME280;61524;50.938;11.396;2023-05-21T10:12:23;99044.78;;;25.16;63.80
73297;BME280;61524;50.938;11.396;2023-05-21T10:14:59;99040.09;;;25.04;63.38
73297;BME280;61524;50.938;11.396;2023-05-21T10:17:27;99036.63;;;24.46;66.35
73297;BME280;61524;50.938;11.396;2023-05-21T10:19:54;99038.53;;;25.15;64.63
73297;BME280;61524;50.938;11.396;2023-05-21T10:22:22;99025.56;;;25.52;62.41
73297;BME280;61524;50.938;11.396;2023-05-21T10:24:49;99025.28;;;25.05;62.34
73297;BME280;61524;50.938;11.396;2023-05-21T10:27:15;99023.75;;;25.44;62.93
73297;BME280;61524;50.938;11.396;2023-05-21T10:29:42;99033.31;;;25.50;62.74
73297;BME280;61524;50.938;11.396;2023-05-21T10:32:13;99024.72;;;24.29;65.25
73297;BME280;61524;50.938;11.396;2023-05-21T10:34:42;99025.28;;;24.93;63.93
73297;BME280;61524;50.938;11.396;2023-05-21T10:37:08;99015.94;;;25.30;62.93
73297;BME280;61524;50.938;11.396;2023-05-21T10:39:34;99022.22;;;24.82;63.45
73297;BME280;61524;50.938;11.396;2023-05-21T10:50:46;99002.97;;;25.96;62.08
73297;BME280;61524;50.938;11.396;2023-05-21T11:01:52;98999.25;;;26.04;59.21
73297;BME280;61524;50.938;11.396;2023-05-21T11:04:22;98996.63;;;26.07;59.89
73297;BME280;61524;50.938;11.396;2023-05-21T11:06:48;98989.81;;;25.33;60.44
73297;BME280;61524;50.938;11.396;2023-05-21T11:09:14;98985.47;;;25.72;60.60
73297;BME280;61524;50.938;11.396;2023-05-21T11:16:56;98969.53;;;26.81;57.87
73297;BME280;61524;50.938;11.396;2023-05-21T11:19:32;98979.69;;;26.97;57.33
73297;BME280;61524;50.938;11.396;2023-05-21T11:21:58;98977.06;;;26.21;58.72
73297;BME280;61524;50.938;11.396;2023-05-21T11:24:23;98980.63;;;27.04;57.30
73297;BME280;61524;50.938;11.396;2023-05-21T11:29:19;98968.53;;;26.89;56.75
73297;BME280;61524;50.938;11.396;2023-05-21T11:31:47;98973.06;;;26.34;57.28
73297;BME280;61524;50.938;11.396;2023-05-21T11:34:17;98964.97;;;26.69;56.79
73297;BME280;61524;50.938;11.396;2023-05-21T11:36:44;98958.13;;;26.16;57.02
73297;BME280;61524;50.938;11.396;2023-05-21T11:39:12;98962.50;;;27.00;56.35
73297;BME280;61524;50.938;11.396;2023-05-21T11:41:56;98964.25;;;27.24;54.95
73297;BME280;61524;50.938;11.396;2023-05-21T11:44:44;98966.97;;;26.73;58.79
73297;BME280;61524;50.938;11.396;2023-05-21T11:47:11;98961.41;;;27.20;56.72
73297;BME280;61524;50.938;11.396;2023-05-21T11:49:39;98955.63;;;26.90;57.07
73297;BME280;61524;50.938;11.396;2023-05-21T11:52:05;98953.91;;;27.17;56.24
73297;BME280;61524;50.938;11.396;2023-05-21T11:54:32;98950.63;;;27.11;56.68
73297;BME280;61524;50.938;11.396;2023-05-21T11:57:05;98948.56;;;27.63;55.06
73297;BME280;61524;50.938;11.396;2023-05-21T11:59:31;98955.50;;;27.37;55.56
73297;BME280;61524;50.938;11.396;2023-05-21T12:01:58;98956.72;;;27.98;53.42
73297;BME280;61524;50.938;11.396;2023-05-21T12:04:34;98943.97;;;28.32;52.17
73297;BME280;61524;50.938;11.396;2023-05-21T12:07:04;98961.06;;;27.99;53.20
73297;BME280;61524;50.938;11.396;2023-05-21T12:09:45;98950.00;;;28.18;51.13
73297;BME280;61524;50.938;11.396;2023-05-21T12:12:14;98955.31;;;28.08;49.22
73297;BME280;61524;50.938;11.396;2023-05-21T12:14:48;98942.56;;;28.91;49.07
73297;BME280;61524;50.938;11.396;2023-05-21T12:17:16;98934.16;;;28.31;50.05
73297;BME280;61524;50.938;11.396;2023-05-21T12:19:42;98934.03;;;29.00;49.60
73297;BME280;61524;50.938;11.396;2023-05-21T12:22:08;98932.19;;;28.81;48.58
73297;BME280;61524;50.938;11.396;2023-05-21T12:24:35;98936.03;;;28.27;47.33
73297;BME280;61524;50.938;11.396;2023-05-21T12:27:02;98934.69;;;28.17;47.05
73297;BME280;61524;50.938;11.396;2023-05-21T12:29:35;98940.00;;;28.30;49.21
73297;BME280;61524;50.938;11.396;2023-05-21T12:32:03;98927.53;;;28.85;47.95
73297;BME280;61524;50.938;11.396;2023-05-21T12:37:07;98921.03;;;28.97;46.52
73297;BME280;61524;50.938;11.396;2023-05-21T12:39:37;98920.28;;;29.30;46.17
73297;BME280;61524;50.938;11.396;2023-05-21T12:42:04;98930.13;;;28.74;47.07
73297;BME280;61524;50.938;11.396;2023-05-21T12:44:30;98930.81;;;28.41;49.35
73297;BME280;61524;50.938;11.396;2023-05-21T12:46:56;98924.16;;;28.42;47.23
73297;BME280;61524;50.938;11.396;2023-05-21T12:49:38;98922.66;;;28.25;49.88
73297;BME280;61524;50.938;11.396;2023-05-21T12:52:08;98918.97;;;28.37;49.86
73297;BME280;61524;50.938;11.396;2023-05-21T12:54:36;98934.94;;;28.55;49.89
73297;BME280;61524;50.938;11.396;2023-05-21T12:57:14;98925.31;;;28.41;45.80
73297;BME280;61524;50.938;11.396;2023-05-21T12:59:59;98921.56;;;28.80;44.43
73297;BME280;61524;50.938;11.396;2023-05-21T13:02:47;98915.22;;;28.26;43.58
73297;BME280;61524;50.938;11.396;2023-05-21T13:05:16;98906.19;;;28.75;48.57
73297;BME280;61524;50.938;11.396;2023-05-21T13:07:42;98905.84;;;28.80;47.65
73297;BME280;61524;50.938;11.396;2023-05-21T13:10:10;98896.59;;;29.22;42.57
73297;BME280;61524;50.938;11.396;2023-05-21T13:12:38;98889.59;;;29.28;42.69
73297;BME280;61524;50.938;11.396;2023-05-21T13:15:04;98887.41;;;28.84;43.26
73297;BME280;61524;50.938;11.396;2023-05-21T13:17:32;98902.09;;;28.65;43.98
73297;BME280;61524;50.938;11.396;2023-05-21T13:20:10;98902.69;;;28.06;46.42